Time;durP1;ratioP1;P1;durP2;ratioP2;P2;SDS_P1;SDS_P2;PMS_P1;PMS_P2;Temp;Humidity;BMP_temperature;BMP_pressure;BME280_temperature;BME280_humidity;BME280_pressure;Samples;Min_cycle;Max_cycle;Signal;HPM_P1;HPM_P2
2023/01/05 07:06:16;;;;;;;26.58;7.78;;;;;;;9.87;100.00;101735.38;5338901;27;20356;-71
2023/01/05 07:08:48;;;;;;;31.30;9.40;;;;;;;9.88;100.00;101737.06;5274984;28;20060;-71
2023/01/05 07:11:19;;;;;;;29.83;8.38;;;;;;;9.89;100.00;101739.53;5280267;28;20017;-71
2023/01/05 07:13:51;;;;;;;37.25;9.38;;;;;;;9.91;100.00;101726.28;5285032;28;20047;-72
2023/01/05 07:16:22;;;;;;;36.97;10.35;;;;;;;9.92;100.00;101733.50;5268566;28;20039;-72
2023/01/05 07:18:53;;;;;;;31.05;9.32;;;;;;;9.93;100.00;101729.63;5263867;28;20029;-72
2023/01/05 07:21:25;;;;;;;31.65;9.98;;;;;;;9.93;100.00;101726.84;5275481;28;20021;-72
2023/01/05 07:23:56;;;;;;;30.45;8.75;;;;;;;9.94;100.00;101731.28;5274237;28;20076;-73
2023/01/05 07:26:27;;;;;;;31.58;9.88;;;;;;;9.94;100.00;101728.50;5271881;28;20024;-72
2023/01/05 07:29:02;;;;;;;31.23;7.60;;;;;;;9.98;100.00;101737.97;5269922;28;20078;-74
2023/01/05 07:31:33;;;;;;;27.33;7.63;;;;;;;10.02;100.00;101741.03;5280728;28;20020;-72
2023/01/05 07:34:05;;;;;;;32.38;11.20;;;;;;;10.01;100.00;101754.06;5262711;28;20028;-70
2023/01/05 07:36:37;;;;;;;29.60;9.52;;;;;;;10.03;100.00;101756.59;5259278;28;20040;-70
2023/01/05 07:39:08;;;;;;;30.83;8.65;;;;;;;10.05;100.00;101756.31;5277704;28;20033;-71
2023/01/05 07:41:40;;;;;;;29.67;8.25;;;;;;;10.14;100.00;101758.34;5279895;28;20082;-69
2023/01/05 07:44:11;;;;;;;28.08;8.93;;;;;;;10.08;100.00;101767.72;5279950;28;20115;-70
2023/01/05 07:46:42;;;;;;;30.55;8.45;;;;;;;10.10;100.00;101767.44;5279590;28;20472;-69
2023/01/05 07:49:14;;;;;;;32.33;10.85;;;;;;;10.07;100.00;101770.75;5279888;28;20016;-69
2023/01/05 07:51:45;;;;;;;27.77;8.35;;;;;;;10.06;100.00;101766.31;5279522;28;20031;-71
2023/01/05 07:54:16;;;;;;;32.72;7.55;;;;;;;10.06;100.00;101771.84;5277940;28;20071;-72
2023/01/05 07:56:48;;;;;;;30.35;9.10;;;;;;;10.03;100.00;101762.13;5273087;28;20024;-71
2023/01/05 07:59:19;;;;;;;31.13;8.80;;;;;;;10.01;100.00;101767.94;5258638;28;20147;-71
2023/01/05 08:01:51;;;;;;;29.45;8.15;;;;;;;10.01;100.00;101776.25;5266840;28;20059;-71
2023/01/05 08:04:22;;;;;;;27.70;9.20;;;;;;;10.01;100.00;101780.94;5278762;28;20090;-72
2023/01/05 08:06:53;;;;;;;30.17;8.82;;;;;;;10.02;100.00;101780.69;5278971;28;20096;-71
2023/01/05 08:12:14;;;;;;;33.38;9.90;;;;;;;10.00;100.00;101782.91;5278698;28;20033;-71
2023/01/05 08:14:46;;;;;;;32.92;8.43;;;;;;;10.01;100.00;101787.31;5278114;28;20032;-71
2023/01/05 08:17:17;;;;;;;26.15;8.45;;;;;;;10.02;100.00;101785.38;5255685;28;20104;-71
2023/01/05 08:19:48;;;;;;;29.95;8.60;;;;;;;10.06;100.00;101794.03;5260894;28;20066;-71
2023/01/05 08:22:20;;;;;;;32.63;9.18;;;;;;;10.04;100.00;101785.97;5262281;28;20495;-72
2023/01/05 08:24:51;;;;;;;29.55;8.27;;;;;;;10.05;100.00;101801.50;5248917;28;20045;-71
2023/01/05 08:27:22;;;;;;;32.95;8.70;;;;;;;10.06;100.00;101799.56;5260617;28;20018;-72
2023/01/05 08:29:54;;;;;;;29.63;8.88;;;;;;;10.07;100.00;101802.06;5263764;28;20020;-70
2023/01/05 08:32:25;;;;;;;35.08;10.48;;;;;;;10.04;100.00;101802.59;5264599;28;20021;-70
2023/01/05 08:34:56;;;;;;;32.50;7.28;;;;;;;10.04;100.00;101801.75;5264644;28;20087;-71
2023/01/05 08:37:28;;;;;;;32.55;8.63;;;;;;;10.06;100.00;101810.66;5264099;28;20021;-71
2023/01/05 08:39:59;;;;;;;26.52;7.78;;;;;;;10.07;100.00;101815.09;5264848;28;20112;-70
2023/01/05 08:42:30;;;;;;;24.73;7.68;;;;;;;10.08;100.00;101819.56;5255941;28;20028;-71
2023/01/05 08:45:02;;;;;;;24.10;7.35;;;;;;;10.08;100.00;101819.56;5247287;28;20060;-72
2023/01/05 08:47:34;;;;;;;26.27;7.38;;;;;;;10.08;100.00;101823.16;5264349;28;20121;-71
2023/01/05 08:50:06;;;;;;;27.88;7.30;;;;;;;10.08;100.00;101836.19;5260237;28;20037;-70
2023/01/05 08:52:37;;;;;;;30.92;8.55;;;;;;;10.11;100.00;101841.19;5263527;28;20032;-70
2023/01/05 08:55:09;;;;;;;29.58;9.02;;;;;;;10.05;100.00;101842.22;5262995;28;20021;-70
2023/01/05 08:57:40;;;;;;;33.70;9.07;;;;;;;10.09;100.00;101844.22;5247742;28;20083;-70
2023/01/05 09:00:12;;;;;;;28.77;7.93;;;;;;;10.11;100.00;101843.97;5243402;28;20037;-70
2023/01/05 09:02:43;;;;;;;27.95;8.57;;;;;;;10.13;100.00;101839.00;5252226;28;20025;-71
2023/01/05 09:05:15;;;;;;;29.58;7.30;;;;;;;10.15;100.00;101842.31;5262592;28;20037;-72
2023/01/05 09:07:49;;;;;;;30.48;9.05;;;;;;;10.15;100.00;101847.88;5263889;28;20058;-72
2023/01/05 09:10:20;;;;;;;30.77;8.68;;;;;;;10.13;100.00;101850.91;5243358;28;20101;-68
2023/01/05 09:12:52;;;;;;;25.75;7.70;;;;;;;10.18;100.00;101852.91;5243052;28;20125;-66
2023/01/05 09:15:23;;;;;;;27.95;8.75;;;;;;;10.35;100.00;101848.09;5243108;28;20534;-69
2023/01/05 09:17:54;;;;;;;29.45;7.60;;;;;;;10.26;100.00;101848.81;5241946;28;20461;-69
2023/01/05 09:20:25;;;;;;;27.75;10.38;;;;;;;10.22;100.00;101851.28;5257794;28;20032;-70
2023/01/05 09:22:57;;;;;;;37.15;15.85;;;;;;;10.23;100.00;101856.56;5263461;28;20032;-69
2023/01/05 09:25:28;;;;;;;29.73;8.48;;;;;;;10.19;100.00;101860.94;5262669;28;20391;-70
2023/01/05 09:27:59;;;;;;;31.27;8.68;;;;;;;10.21;100.00;101863.47;5262626;28;20025;-71
2023/01/05 09:30:31;;;;;;;30.40;9.57;;;;;;;10.21;100.00;101863.47;5263358;28;20021;-70
2023/01/05 09:33:02;;;;;;;34.30;9.20;;;;;;;10.22;100.00;101867.91;5262900;28;20457;-70
2023/01/05 09:35:33;;;;;;;32.15;8.68;;;;;;;10.23;100.00;101875.97;5243126;28;20029;-70
2023/01/05 09:38:05;;;;;;;36.85;10.73;;;;;;;10.26;100.00;101874.59;5262529;28;20379;-71
2023/01/05 09:40:42;;;;;;;30.02;9.05;;;;;;;10.27;100.00;101879.03;5262200;28;20071;-69
2023/01/05 09:43:35;;;;;;;32.10;9.15;;;;;;;10.32;100.00;101876.34;5262796;28;20029;-70
2023/01/05 09:46:18;;;;;;;26.35;9.93;;;;;;;10.29;100.00;101887.97;5262205;28;20119;-68
2023/01/05 09:48:54;;;;;;;32.20;8.52;;;;;;;10.30;100.00;101888.81;5263002;28;20110;-69
2023/01/05 09:51:26;;;;;;;28.08;8.68;;;;;;;10.25;100.00;101892.31;5263132;28;20444;-71
2023/01/05 09:54:00;;;;;;;31.38;7.85;;;;;;;10.27;100.00;101887.34;5261998;28;20499;-70
2023/01/05 09:56:42;;;;;;;41.33;12.70;;;;;;;10.26;100.00;101894.00;5262772;28;20017;-69
2023/01/05 09:59:28;;;;;;;31.88;9.95;;;;;;;10.29;100.00;101892.69;5252638;28;20036;-70
2023/01/05 10:02:03;;;;;;;30.33;11.18;;;;;;;10.33;100.00;101897.44;5240424;28;20033;-71
2023/01/05 10:04:35;;;;;;;27.67;8.52;;;;;;;10.35;100.00;101900.78;5242516;28;20033;-70
2023/01/05 10:07:12;;;;;;;31.92;7.60;;;;;;;10.38;100.00;101902.19;5239909;28;20037;-71
2023/01/05 10:09:46;;;;;;;35.53;9.55;;;;;;;10.35;100.00;101898.00;5240532;28;20372;-70
2023/01/05 10:15:20;;;;;;;33.08;9.00;;;;;;;10.38;100.00;101903.03;5254190;28;20037;-69
2023/01/05 10:17:52;;;;;;;25.98;8.23;;;;;;;10.38;100.00;101897.50;5260199;28;20029;-70
2023/01/05 10:20:50;;;;;;;27.30;9.18;;;;;;;10.42;100.00;101901.41;5260250;28;20027;-69
2023/01/05 10:23:39;;;;;;;31.67;8.30;;;;;;;10.45;100.00;101911.97;5222931;28;20044;-70
2023/01/05 10:26:10;;;;;;;37.58;15.85;;;;;;;10.47;100.00;101910.88;5260416;28;20048;-70
2023/01/05 10:29:00;;;;;;;34.60;13.05;;;;;;;10.44;100.00;101913.06;5258682;28;20112;-70
2023/01/05 10:32:02;;;;;;;28.98;7.80;;;;;;;10.57;100.00;101919.28;5261922;28;20099;-69
2023/01/05 10:34:53;;;;;;;22.73;8.32;;;;;;;10.49;100.00;101925.31;5261878;28;20032;-69
2023/01/05 10:37:40;;;;;;;29.05;8.10;;;;;;;10.49;100.00;101919.78;5262595;28;20107;-70
2023/01/05 10:40:33;;;;;;;28.67;8.82;;;;;;;10.44;100.00;101918.63;5253635;28;20054;-70
2023/01/05 10:43:48;;;;;;;23.70;10.27;;;;;;;10.55;100.00;101918.72;5258401;28;20086;-70
2023/01/05 10:46:20;;;;;;;32.72;9.07;;;;;;;10.49;100.00;101908.69;5240925;28;20080;-70
2023/01/05 10:48:51;;;;;;;31.63;10.25;;;;;;;10.48;100.00;101920.88;5240716;28;20495;-71
2023/01/05 10:51:23;;;;;;;27.27;8.60;;;;;;;10.46;100.00;101915.59;5240937;28;20477;-71
2023/01/05 10:53:55;;;;;;;33.83;8.90;;;;;;;10.50;100.00;101927.81;5246867;28;20025;-69
2023/01/05 10:56:28;;;;;;;28.27;9.73;;;;;;;10.58;100.00;101918.19;5261318;28;20025;-72
2023/01/05 10:59:14;;;;;;;36.45;9.90;;;;;;;10.58;100.00;101926.50;5259718;28;20029;-70
2023/01/05 11:01:48;;;;;;;24.50;9.32;;;;;;;10.54;100.00;101931.75;5253891;28;20026;-72
2023/01/05 11:04:23;;;;;;;36.95;9.52;;;;;;;10.55;100.00;101930.66;5239956;28;20057;-71
2023/01/05 11:07:05;;;;;;;34.88;9.20;;;;;;;10.58;100.00;101929.28;5256617;28;20115;-69
2023/01/05 11:09:42;;;;;;;27.63;8.75;;;;;;;10.60;100.00;101927.09;5240840;28;20022;-71
2023/01/05 11:12:18;;;;;;;28.98;8.80;;;;;;;10.54;100.00;101936.47;5240312;28;20036;-72
2023/01/05 11:14:55;;;;;;;36.92;10.68;;;;;;;10.54;100.00;101928.16;5240930;28;20033;-72
2023/01/05 11:17:37;;;;;;;33.22;9.50;;;;;;;10.50;100.00;101932.53;5240369;28;20041;-71
2023/01/05 11:20:15;;;;;;;30.60;8.40;;;;;;;10.53;100.00;101929.22;5259817;28;20380;-70
2023/01/05 11:22:47;;;;;;;27.20;10.43;;;;;;;10.59;100.00;101930.97;5261551;28;20033;-74
2023/01/05 11:25:34;;;;;;;33.10;9.40;;;;;;;10.59;100.00;101937.34;5257432;28;20025;-71
2023/01/05 11:28:14;;;;;;;26.80;9.02;;;;;;;10.62;100.00;101930.44;5254174;28;20024;-71
2023/01/05 11:30:58;;;;;;;30.73;9.13;;;;;;;10.61;100.00;101928.78;5253637;28;20017;-72
2023/01/05 11:33:33;;;;;;;27.83;8.60;;;;;;;10.67;100.00;101924.94;5260198;28;20029;-72
2023/01/05 11:36:05;;;;;;;33.83;9.80;;;;;;;10.78;100.00;101912.81;5252750;28;20114;-76
2023/01/05 11:38:36;;;;;;;34.25;10.73;;;;;;;10.80;100.00;101915.34;5259543;28;20067;-73
2023/01/05 11:41:10;;;;;;;29.23;11.63;;;;;;;10.86;100.00;101917.91;5248212;28;20810;-72
2023/01/05 11:43:46;;;;;;;30.30;8.20;;;;;;;10.82;100.00;101913.97;5257757;28;20024;-74
2023/01/05 11:46:21;;;;;;;29.90;10.63;;;;;;;10.78;100.00;101910.03;5259928;28;20037;-74
2023/01/05 11:48:56;;;;;;;25.23;8.60;;;;;;;10.82;100.00;101913.97;5260642;28;20373;-75
2023/01/05 11:51:34;;;;;;;23.57;7.57;;;;;;;10.84;100.00;101917.31;5252961;28;20534;-74
2023/01/05 11:54:27;;;;;;;29.83;9.90;;;;;;;10.86;100.00;101912.34;5263122;28;20327;-73
2023/01/05 11:57:16;;;;;;;33.88;10.18;;;;;;;10.81;100.00;101906.75;5265500;28;20400;-69
2023/01/05 11:59:50;;;;;;;28.25;13.30;;;;;;;10.75;100.00;101905.03;5253224;28;20456;-71
2023/01/05 12:02:58;;;;;;;19.83;7.47;;;;;;;10.77;100.00;101904.78;5249960;28;20022;-72
2023/01/05 12:05:36;;;;;;;32.00;9.57;;;;;;;10.86;100.00;101901.25;5246754;28;20053;-71
2023/01/05 12:08:19;;;;;;;28.45;9.30;;;;;;;10.81;100.00;101905.91;5243814;28;20021;-72
2023/01/05 12:11:19;;;;;;;27.42;7.80;;;;;;;10.79;100.00;101906.19;5261485;28;20074;-71
2023/01/05 12:13:50;;;;;;;26.83;8.98;;;;;;;10.88;100.00;101904.56;5262609;28;20029;-71
2023/01/05 12:16:27;;;;;;;25.13;8.93;;;;;;;10.83;100.00;101904.53;5265074;28;20032;-71
2023/01/05 12:19:26;;;;;;;26.17;9.13;;;;;;;10.81;100.00;101897.56;5257067;28;20029;-70
2023/01/05 12:22:12;;;;;;;30.83;8.45;;;;;;;10.80;100.00;101907.00;5255485;28;20035;-71
2023/01/05 12:25:31;;;;;;;30.17;9.50;;;;;;;10.88;100.00;101904.56;5264760;28;20476;-70
2023/01/05 12:28:24;;;;;;;27.50;8.68;;;;;;;10.98;100.00;101897.44;5248966;28;20045;-71
2023/01/05 12:31:30;;;;;;;24.23;8.05;;;;;;;10.90;100.00;101903.47;5243678;28;20324;-70
2023/01/05 12:34:17;;;;;;;27.67;9.38;;;;;;;10.86;100.00;101900.38;5244496;28;20049;-70
2023/01/05 12:36:51;;;;;;;31.02;10.48;;;;;;;10.82;100.00;101900.09;5248883;28;20112;-70
2023/01/05 12:39:39;;;;;;;30.83;8.77;;;;;;;10.87;100.00;101894.56;5253346;28;20053;-70
2023/01/05 12:42:44;;;;;;;26.35;8.85;;;;;;;10.88;100.00;101896.25;5253163;28;20061;-70
2023/01/05 12:45:30;;;;;;;25.67;8.93;;;;;;;10.95;100.00;101889.63;5243934;28;20041;-71
2023/01/05 12:48:25;;;;;;;29.48;10.05;;;;;;;10.92;100.00;101884.63;5246358;28;20116;-71
2023/01/05 12:51:03;;;;;;;22.58;7.85;;;;;;;10.89;100.00;101891.56;5264425;28;20029;-72
2023/01/05 12:53:35;;;;;;;22.73;7.80;;;;;;;10.96;100.00;101880.19;5259599;28;20025;-71
2023/01/05 12:56:17;;;;;;;26.98;9.02;;;;;;;10.99;100.00;101879.66;5242710;28;20029;-72
2023/01/05 12:59:02;;;;;;;28.83;8.90;;;;;;;11.02;100.00;101885.53;5263971;28;20422;-72
2023/01/05 13:01:41;;;;;;;22.40;7.80;;;;;;;11.01;100.00;101891.34;5264108;28;20021;-72
2023/01/05 13:04:48;;;;;;;29.23;8.07;;;;;;;10.99;100.00;101885.22;5263609;28;20049;-72
2023/01/05 13:07:29;;;;;;;30.40;9.10;;;;;;;10.98;100.00;101878.81;5252036;28;20040;-70
2023/01/05 13:10:05;;;;;;;28.27;10.25;;;;;;;11.05;100.00;101873.88;5242462;28;20025;-71
2023/01/05 13:12:37;;;;;;;30.45;9.65;;;;;;;11.04;100.00;101877.78;5249075;28;20028;-70
2023/01/05 13:15:23;;;;;;;29.00;7.57;;;;;;;11.07;100.00;101880.00;5263909;28;20039;-71
2023/01/05 13:17:57;;;;;;;31.77;7.82;;;;;;;11.04;100.00;101877.78;5262834;28;20447;-72
2023/01/05 13:20:42;;;;;;;26.58;8.32;;;;;;;11.05;100.00;101875.84;5262598;28;20468;-72
2023/01/05 13:23:38;;;;;;;24.95;8.80;;;;;;;11.07;100.00;101882.78;5263680;28;20088;-72
2023/01/05 13:26:14;;;;;;;28.80;9.98;;;;;;;11.03;100.00;101875.25;5263598;28;20029;-72
2023/01/05 13:28:48;;;;;;;26.23;8.73;;;;;;;11.03;100.00;101881.63;5263922;28;20029;-73
2023/01/05 13:31:34;;;;;;;23.42;8.98;;;;;;;11.04;100.00;101875.00;5262396;28;20380;-72
2023/01/05 13:34:48;;;;;;;26.63;8.45;;;;;;;11.21;100.00;101885.91;5263369;28;20078;-72
2023/01/05 13:37:49;;;;;;;34.17;10.57;;;;;;;11.23;100.00;101872.59;5260223;28;20033;-72
2023/01/05 13:40:24;;;;;;;21.98;6.90;;;;;;;11.33;100.00;101880.16;5263548;28;20029;-72
2023/01/05 13:43:32;;;;;;;28.88;8.30;;;;;;;11.23;100.00;101883.72;5256285;28;20056;-70
2023/01/05 13:46:04;;;;;;;25.80;8.70;;;;;;;11.15;100.00;101881.44;5241726;28;20025;-74
2023/01/05 13:48:53;;;;;;;27.65;9.95;;;;;;;11.12;100.00;101876.44;5242810;28;20079;-73
2023/01/05 13:51:33;;;;;;;28.38;8.95;;;;;;;11.10;100.00;101871.13;5248941;28;20013;-76
2023/01/05 13:54:16;;;;;;;29.60;10.18;;;;;;;11.14;100.00;101876.97;5262358;28;20082;-76
2023/01/05 13:56:49;;;;;;;30.42;9.60;;;;;;;11.15;100.00;101883.41;5263157;28;20021;-75
2023/01/05 13:59:28;;;;;;;25.80;9.57;;;;;;;11.17;100.00;101875.59;5262229;28;20025;-74
2023/01/05 14:02:00;;;;;;;55.65;27.25;;;;;;;11.18;100.00;101871.75;5263074;28;20111;-69
2023/01/05 14:04:34;;;;;;;28.95;9.90;;;;;;;11.19;100.00;101868.69;5261439;28;20124;-74
2023/01/05 14:07:14;;;;;;;21.05;8.50;;;;;;;11.25;100.00;101864.84;5261664;28;20029;-72
2023/01/05 14:09:53;;;;;;;33.05;11.70;;;;;;;11.27;100.00;101867.34;5262497;28;20662;-72
2023/01/05 14:12:44;;;;;;;26.25;10.45;;;;;;;11.23;100.00;101875.38;5262679;28;20056;-72
2023/01/05 14:15:41;;;;;;;26.40;10.13;;;;;;;11.23;100.00;101869.00;5245731;28;20036;-73
2023/01/05 14:18:51;;;;;;;28.92;11.45;;;;;;;11.27;100.00;101870.97;5242456;28;20496;-73
2023/01/05 14:21:47;;;;;;;23.98;9.40;;;;;;;11.27;100.00;101867.34;5244802;28;20037;-74
2023/01/05 14:24:46;;;;;;;38.85;26.95;;;;;;;11.22;100.00;101870.94;5257709;28;20245;-73
2023/01/05 14:27:22;;;;;;;26.17;10.38;;;;;;;11.26;100.00;101868.44;5250534;28;20430;-71
2023/01/05 14:29:55;;;;;;;23.75;8.85;;;;;;;11.21;100.00;101866.47;5243391;28;20033;-72
2023/01/05 14:32:28;;;;;;;29.85;10.98;;;;;;;11.13;100.00;101869.75;5260801;28;20017;-74
2023/01/05 14:35:21;;;;;;;35.08;11.27;;;;;;;11.17;100.00;101879.25;5256739;28;20064;-74
2023/01/05 14:38:21;;;;;;;25.50;8.48;;;;;;;11.25;100.00;101867.63;5257598;28;20029;-73
2023/01/05 14:40:55;;;;;;;26.35;7.95;;;;;;;11.29;100.00;101871.50;5255197;28;20120;-75
2023/01/05 14:43:32;;;;;;;23.77;7.53;;;;;;;11.07;100.00;101862.53;5245402;28;20113;-75
2023/01/05 14:46:16;;;;;;;23.70;9.35;;;;;;;11.12;100.00;101875.56;5241917;28;20031;-74
2023/01/05 14:49:00;;;;;;;33.22;11.35;;;;;;;11.09;100.00;101876.94;5241364;28;20051;-74
2023/01/05 14:51:33;;;;;;;25.42;9.32;;;;;;;11.06;100.00;101880.25;5241889;28;20025;-75
2023/01/05 14:54:04;;;;;;;36.58;9.55;;;;;;;11.20;100.00;101884.25;5241299;28;20076;-74
2023/01/05 14:56:36;;;;;;;28.48;12.57;;;;;;;11.02;100.00;101898.59;5240182;28;20131;-73
2023/01/05 14:59:24;;;;;;;40.85;24.58;;;;;;;11.08;100.00;101892.78;5245237;28;20021;-74
2023/01/05 15:02:00;;;;;;;29.73;11.93;;;;;;;11.00;100.00;101886.91;5250390;28;20017;-74
2023/01/05 15:04:36;;;;;;;28.15;10.68;;;;;;;10.98;100.00;101889.94;5261953;28;20048;-71
2023/01/05 15:07:22;;;;;;;34.65;9.13;;;;;;;10.92;100.00;101884.63;5254109;28;20048;-73
2023/01/05 15:10:34;;;;;;;18.10;8.00;;;;;;;10.86;100.00;101887.38;5240881;28;20473;-72
2023/01/05 15:13:18;;;;;;;27.23;8.82;;;;;;;10.85;100.00;101888.44;5177500;28;20039;-71
2023/01/05 15:15:54;;;;;;;22.65;7.20;;;;;;;10.81;100.00;101880.91;5240628;28;20040;-71
2023/01/05 15:18:52;;;;;;;20.80;7.43;;;;;;;10.76;100.00;101884.53;5260102;28;20033;-70
2023/01/05 15:21:38;;;;;;;21.60;8.77;;;;;;;10.79;100.00;101885.94;5244667;28;20037;-71
2023/01/05 15:24:31;;;;;;;26.15;9.60;;;;;;;10.85;100.00;101877.34;5241075;28;20025;-72
2023/01/05 15:27:19;;;;;;;20.52;8.65;;;;;;;10.71;100.00;101878.06;5244735;28;20056;-70
2023/01/05 15:30:00;;;;;;;19.05;8.13;;;;;;;10.71;100.00;101873.38;5245068;28;20083;-69
2023/01/05 15:32:35;;;;;;;25.27;8.75;;;;;;;10.70;100.00;101871.69;5245256;28;20025;-70
2023/01/05 15:35:20;;;;;;;25.02;9.23;;;;;;;10.65;100.00;101877.19;5265315;28;20087;-70
2023/01/05 15:37:52;;;;;;;26.48;9.35;;;;;;;10.68;100.00;101871.09;5264872;28;20025;-70
2023/01/05 15:40:32;;;;;;;31.63;10.80;;;;;;;10.68;100.00;101870.28;5265790;28;20032;-70
2023/01/05 15:43:04;;;;;;;26.23;8.20;;;;;;;10.56;100.00;101857.44;5263619;28;20033;-70
2023/01/05 15:45:41;;;;;;;23.80;9.55;;;;;;;10.62;100.00;101863.88;5264455;28;20029;-71
2023/01/05 15:48:17;;;;;;;27.10;10.07;;;;;;;10.67;100.00;101855.59;5265183;28;20021;-71
2023/01/05 15:50:51;;;;;;;28.33;7.93;;;;;;;10.66;100.00;101859.47;5263080;28;20395;-71
2023/01/05 15:53:24;;;;;;;25.23;9.30;;;;;;;10.71;100.00;101853.97;5264209;28;20490;-69
2023/01/05 15:55:56;;;;;;;28.65;10.57;;;;;;;10.63;100.00;101848.88;5255939;28;20029;-71
2023/01/05 15:58:32;;;;;;;25.67;9.77;;;;;;;10.68;100.00;101845.31;5243148;28;20021;-72
2023/01/05 16:01:14;;;;;;;25.48;9.95;;;;;;;10.74;100.00;101849.81;5245843;28;20036;-71
2023/01/05 16:03:47;;;;;;;29.30;8.68;;;;;;;10.64;100.00;101856.13;5264802;28;20480;-73
2023/01/05 16:06:22;;;;;;;25.27;8.65;;;;;;;10.71;100.00;101847.53;5264305;28;20128;-73
2023/01/05 16:08:58;;;;;;;24.33;8.40;;;;;;;10.64;100.00;101845.03;5264596;28;20032;-72
2023/01/05 16:11:40;;;;;;;29.25;8.02;;;;;;;10.62;100.00;101848.03;5264828;28;20083;-69
2023/01/05 16:14:32;;;;;;;31.17;9.98;;;;;;;10.64;100.00;101839.47;5264224;28;20021;-69
2023/01/05 16:17:10;;;;;;;29.10;9.38;;;;;;;10.67;100.00;101838.94;5265032;28;20025;-71
2023/01/05 16:19:52;;;;;;;28.17;10.60;;;;;;;10.68;100.00;101837.81;5262242;28;20072;-71
2023/01/05 16:22:39;;;;;;;26.80;9.02;;;;;;;10.74;100.00;101827.63;5253563;28;20036;-71
2023/01/05 16:25:19;;;;;;;19.27;9.68;;;;;;;10.75;100.00;101830.09;5261048;28;20046;-71
2023/01/05 16:27:57;;;;;;;20.48;9.27;;;;;;;10.69;100.00;101820.09;5243634;28;20026;-70
2023/01/05 16:30:30;;;;;;;22.23;8.35;;;;;;;10.62;100.00;101820.31;5244064;28;20354;-71
2023/01/05 16:33:04;;;;;;;21.02;8.25;;;;;;;10.68;100.00;101818.41;5248114;28;20052;-71
2023/01/05 16:35:42;;;;;;;29.70;9.00;;;;;;;10.68;100.00;101810.06;5263166;28;20060;-70
